sensor_id;sensor_type;location;lat;lon;timestamp;P1;durP1;ratioP1;P2;durP2;ratioP2
23872;SDS011;42884;50.718;4.630;2023-04-24T00:01:42;24.73;;;15.32;;
23872;SDS011;42884;50.718;4.630;2023-04-24T00:04:08;22.67;;;13.98;;
23872;SDS011;42884;50.718;4.630;2023-04-24T00:06:36;25.40;;;14.95;;
23872;SDS011;42884;50.718;4.630;2023-04-24T00:09:02;25.58;;;15.70;;
23872;SDS011;42884;50.718;4.630;2023-04-24T00:11:29;25.92;;;15.90;;
23872;SDS011;42884;50.718;4.630;2023-04-24T00:16:21;21.50;;;14.13;;
23872;SDS011;42884;50.718;4.630;2023-04-24T00:21:13;23.45;;;13.90;;
23872;SDS011;42884;50.718;4.630;2023-04-24T00:23:41;26.08;;;14.43;;
23872;SDS011;42884;50.718;4.630;2023-04-24T00:26:06;20.60;;;14.10;;
23872;SDS011;42884;50.718;4.630;2023-04-24T00:28:33;22.70;;;14.05;;
23872;SDS011;42884;50.718;4.630;2023-04-24T00:30:58;25.10;;;14.05;;
23872;SDS011;42884;50.718;4.630;2023-04-24T00:33:24;24.48;;;14.88;;
23872;SDS011;42884;50.718;4.630;2023-04-24T00:35:50;25.63;;;15.35;;
23872;SDS011;42884;50.718;4.630;2023-04-24T00:38:15;18.55;;;13.15;;
23872;SDS011;42884;50.718;4.630;2023-04-24T00:40:41;21.10;;;13.95;;
23872;SDS011;42884;50.718;4.630;2023-04-24T00:43:07;21.83;;;15.27;;
23872;SDS011;42884;50.718;4.630;2023-04-24T00:45:32;25.58;;;13.52;;
23872;SDS011;42884;50.718;4.630;2023-04-24T00:47:58;26.17;;;15.40;;
23872;SDS011;42884;50.718;4.630;2023-04-24T00:50:26;25.88;;;14.63;;
23872;SDS011;42884;50.718;4.630;2023-04-24T00:52:52;23.73;;;15.45;;
23872;SDS011;42884;50.718;4.630;2023-04-24T00:55:17;28.63;;;14.90;;
23872;SDS011;42884;50.718;4.630;2023-04-24T00:57:44;26.83;;;14.93;;
23872;SDS011;42884;50.718;4.630;2023-04-24T01:00:11;24.50;;;15.55;;
23872;SDS011;42884;50.718;4.630;2023-04-24T01:02:43;19.67;;;14.13;;
23872;SDS011;42884;50.718;4.630;2023-04-24T01:05:10;23.80;;;14.82;;
23872;SDS011;42884;50.718;4.630;2023-04-24T01:07:37;27.35;;;14.63;;
23872;SDS011;42884;50.718;4.630;2023-04-24T01:10:06;21.50;;;14.43;;
23872;SDS011;42884;50.718;4.630;2023-04-24T01:12:33;25.02;;;14.60;;
23872;SDS011;42884;50.718;4.630;2023-04-24T01:14:59;23.88;;;14.05;;
23872;SDS011;42884;50.718;4.630;2023-04-24T01:17:24;29.67;;;15.07;;
23872;SDS011;42884;50.718;4.630;2023-04-24T01:19:50;25.45;;;14.85;;
23872;SDS011;42884;50.718;4.630;2023-04-24T01:22:18;25.67;;;15.07;;
23872;SDS011;42884;50.718;4.630;2023-04-24T01:24:45;20.73;;;14.57;;
23872;SDS011;42884;50.718;4.630;2023-04-24T01:27:11;20.05;;;14.05;;
23872;SDS011;42884;50.718;4.630;2023-04-24T01:29:37;23.30;;;14.77;;
23872;SDS011;42884;50.718;4.630;2023-04-24T01:32:03;22.73;;;13.75;;
23872;SDS011;42884;50.718;4.630;2023-04-24T01:34:30;21.88;;;13.38;;
23872;SDS011;42884;50.718;4.630;2023-04-24T01:36:57;22.27;;;13.70;;
23872;SDS011;42884;50.718;4.630;2023-04-24T01:39:23;24.27;;;13.07;;
23872;SDS011;42884;50.718;4.630;2023-04-24T01:41:50;22.60;;;13.70;;
23872;SDS011;42884;50.718;4.630;2023-04-24T01:44:17;18.10;;;12.10;;
23872;SDS011;42884;50.718;4.630;2023-04-24T01:46:43;15.85;;;11.77;;
23872;SDS011;42884;50.718;4.630;2023-04-24T01:49:09;16.80;;;11.85;;
23872;SDS011;42884;50.718;4.630;2023-04-24T01:54:01;18.33;;;13.98;;
23872;SDS011;42884;50.718;4.630;2023-04-24T01:58:58;27.30;;;14.82;;
23872;SDS011;42884;50.718;4.630;2023-04-24T02:01:25;25.30;;;16.30;;
23872;SDS011;42884;50.718;4.630;2023-04-24T02:03:51;22.40;;;16.50;;
23872;SDS011;42884;50.718;4.630;2023-04-24T02:06:17;25.23;;;15.88;;
23872;SDS011;42884;50.718;4.630;2023-04-24T02:08:43;24.50;;;16.25;;
23872;SDS011;42884;50.718;4.630;2023-04-24T02:11:09;21.33;;;14.98;;
23872;SDS011;42884;50.718;4.630;2023-04-24T02:13:35;25.10;;;15.70;;
23872;SDS011;42884;50.718;4.630;2023-04-24T02:16:01;23.83;;;16.83;;
23872;SDS011;42884;50.718;4.630;2023-04-24T02:18:27;26.42;;;16.45;;
23872;SDS011;42884;50.718;4.630;2023-04-24T02:20:53;24.50;;;16.13;;
23872;SDS011;42884;50.718;4.630;2023-04-24T02:23:19;24.25;;;17.23;;
23872;SDS011;42884;50.718;4.630;2023-04-24T02:25:44;28.67;;;17.08;;
23872;SDS011;42884;50.718;4.630;2023-04-24T02:28:10;33.05;;;18.52;;
23872;SDS011;42884;50.718;4.630;2023-04-24T02:30:36;29.83;;;17.75;;
23872;SDS011;42884;50.718;4.630;2023-04-24T02:33:02;31.88;;;17.92;;
23872;SDS011;42884;50.718;4.630;2023-04-24T02:35:28;25.63;;;18.20;;
23872;SDS011;42884;50.718;4.630;2023-04-24T02:37:54;26.10;;;17.77;;
23872;SDS011;42884;50.718;4.630;2023-04-24T02:40:20;26.25;;;17.23;;
23872;SDS011;42884;50.718;4.630;2023-04-24T02:42:46;25.90;;;17.83;;
23872;SDS011;42884;50.718;4.630;2023-04-24T02:45:11;27.42;;;17.50;;
23872;SDS011;42884;50.718;4.630;2023-04-24T02:47:37;26.70;;;16.40;;
23872;SDS011;42884;50.718;4.630;2023-04-24T02:50:03;27.25;;;17.30;;
23872;SDS011;42884;50.718;4.630;2023-04-24T02:52:29;26.38;;;16.40;;
23872;SDS011;42884;50.718;4.630;2023-04-24T02:54:55;26.98;;;16.75;;
23872;SDS011;42884;50.718;4.630;2023-04-24T02:57:21;28.98;;;17.25;;
23872;SDS011;42884;50.718;4.630;2023-04-24T02:59:46;22.65;;;16.05;;
23872;SDS011;42884;50.718;4.630;2023-04-24T03:02:12;25.02;;;16.25;;
23872;SDS011;42884;50.718;4.630;2023-04-24T03:04:38;28.65;;;16.33;;
23872;SDS011;42884;50.718;4.630;2023-04-24T03:07:05;28.60;;;17.77;;
23872;SDS011;42884;50.718;4.630;2023-04-24T03:09:31;30.00;;;16.83;;
23872;SDS011;42884;50.718;4.630;2023-04-24T03:11:56;27.30;;;17.30;;
23872;SDS011;42884;50.718;4.630;2023-04-24T03:14:23;31.30;;;17.10;;
23872;SDS011;42884;50.718;4.630;2023-04-24T03:16:49;29.13;;;18.33;;
23872;SDS011;42884;50.718;4.630;2023-04-24T03:19:15;28.40;;;18.83;;
23872;SDS011;42884;50.718;4.630;2023-04-24T03:21:41;28.73;;;18.27;;
23872;SDS011;42884;50.718;4.630;2023-04-24T03:24:07;28.45;;;18.75;;
23872;SDS011;42884;50.718;4.630;2023-04-24T03:26:34;28.83;;;16.60;;
23872;SDS011;42884;50.718;4.630;2023-04-24T03:29:00;26.73;;;17.00;;
23872;SDS011;42884;50.718;4.630;2023-04-24T03:31:26;28.70;;;15.88;;
23872;SDS011;42884;50.718;4.630;2023-04-24T03:33:51;23.85;;;14.15;;
23872;SDS011;42884;50.718;4.630;2023-04-24T03:36:17;23.55;;;15.35;;
23872;SDS011;42884;50.718;4.630;2023-04-24T03:38:44;22.48;;;15.07;;
23872;SDS011;42884;50.718;4.630;2023-04-24T03:41:10;23.90;;;14.52;;
23872;SDS011;42884;50.718;4.630;2023-04-24T03:43:36;21.23;;;13.18;;
23872;SDS011;42884;50.718;4.630;2023-04-24T03:48:28;25.48;;;13.52;;
23872;SDS011;42884;50.718;4.630;2023-04-24T03:50:54;24.27;;;14.70;;
23872;SDS011;42884;50.718;4.630;2023-04-24T03:53:20;19.30;;;13.35;;
23872;SDS011;42884;50.718;4.630;2023-04-24T03:55:46;25.05;;;14.25;;
23872;SDS011;42884;50.718;4.630;2023-04-24T03:58:12;17.85;;;13.00;;
23872;SDS011;42884;50.718;4.630;2023-04-24T04:00:39;18.90;;;12.88;;
23872;SDS011;42884;50.718;4.630;2023-04-24T04:03:05;20.15;;;13.13;;
23872;SDS011;42884;50.718;4.630;2023-04-24T04:05:31;18.10;;;12.23;;
23872;SDS011;42884;50.718;4.630;2023-04-24T04:07:57;17.20;;;12.73;;
23872;SDS011;42884;50.718;4.630;2023-04-24T04:10:22;24.13;;;12.98;;
23872;SDS011;42884;50.718;4.630;2023-04-24T04:12:48;20.10;;;13.00;;
23872;SDS011;42884;50.718;4.630;2023-04-24T04:15:14;19.27;;;12.07;;
23872;SDS011;42884;50.718;4.630;2023-04-24T04:17:40;24.67;;;13.20;;
23872;SDS011;42884;50.718;4.630;2023-04-24T04:20:06;20.83;;;12.00;;
23872;SDS011;42884;50.718;4.630;2023-04-24T04:22:35;19.15;;;12.13;;
23872;SDS011;42884;50.718;4.630;2023-04-24T04:25:01;18.30;;;12.00;;
23872;SDS011;42884;50.718;4.630;2023-04-24T04:27:27;19.30;;;11.55;;
23872;SDS011;42884;50.718;4.630;2023-04-24T04:29:57;19.90;;;10.38;;
23872;SDS011;42884;50.718;4.630;2023-04-24T04:32:33;17.00;;;10.40;;
23872;SDS011;42884;50.718;4.630;2023-04-24T04:35:02;13.15;;;10.40;;
23872;SDS011;42884;50.718;4.630;2023-04-24T04:37:29;10.98;;;8.05;;
23872;SDS011;42884;50.718;4.630;2023-04-24T04:39:56;14.18;;;8.85;;
23872;SDS011;42884;50.718;4.630;2023-04-24T04:42:25;14.10;;;8.73;;
23872;SDS011;42884;50.718;4.630;2023-04-24T04:44:52;15.10;;;8.50;;
23872;SDS011;42884;50.718;4.630;2023-04-24T04:47:18;12.88;;;8.55;;
23872;SDS011;42884;50.718;4.630;2023-04-24T04:49:49;12.63;;;8.27;;
23872;SDS011;42884;50.718;4.630;2023-04-24T04:52:18;13.02;;;7.97;;
23872;SDS011;42884;50.718;4.630;2023-04-24T04:54:44;10.15;;;7.93;;
23872;SDS011;42884;50.718;4.630;2023-04-24T04:57:11;15.43;;;8.80;;
23872;SDS011;42884;50.718;4.630;2023-04-24T05:02:03;10.88;;;7.60;;
23872;SDS011;42884;50.718;4.630;2023-04-24T05:04:29;10.57;;;7.63;;
23872;SDS011;42884;50.718;4.630;2023-04-24T05:06:55;12.00;;;7.50;;
23872;SDS011;42884;50.718;4.630;2023-04-24T05:11:46;10.38;;;7.63;;
23872;SDS011;42884;50.718;4.630;2023-04-24T05:14:12;9.38;;;7.63;;
23872;SDS011;42884;50.718;4.630;2023-04-24T05:16:38;11.15;;;7.72;;
23872;SDS011;42884;50.718;4.630;2023-04-24T05:19:05;12.63;;;8.43;;
23872;SDS011;42884;50.718;4.630;2023-04-24T05:21:31;12.63;;;8.73;;
23872;SDS011;42884;50.718;4.630;2023-04-24T05:23:57;13.40;;;8.55;;
23872;SDS011;42884;50.718;4.630;2023-04-24T05:26:22;18.65;;;11.30;;
23872;SDS011;42884;50.718;4.630;2023-04-24T05:28:48;16.23;;;9.68;;
23872;SDS011;42884;50.718;4.630;2023-04-24T05:33:40;19.23;;;11.23;;
23872;SDS011;42884;50.718;4.630;2023-04-24T05:36:06;15.48;;;10.23;;
23872;SDS011;42884;50.718;4.630;2023-04-24T05:38:32;19.83;;;10.38;;
23872;SDS011;42884;50.718;4.630;2023-04-24T05:40:58;17.35;;;11.02;;
23872;SDS011;42884;50.718;4.630;2023-04-24T05:43:24;17.40;;;9.98;;
23872;SDS011;42884;50.718;4.630;2023-04-24T05:48:15;17.70;;;11.50;;
23872;SDS011;42884;50.718;4.630;2023-04-24T05:50:41;25.08;;;12.32;;
23872;SDS011;42884;50.718;4.630;2023-04-24T05:53:07;18.17;;;11.95;;
23872;SDS011;42884;50.718;4.630;2023-04-24T05:55:34;19.83;;;13.13;;
23872;SDS011;42884;50.718;4.630;2023-04-24T05:58:00;27.35;;;13.73;;
23872;SDS011;42884;50.718;4.630;2023-04-24T06:00:26;23.27;;;12.07;;
23872;SDS011;42884;50.718;4.630;2023-04-24T06:02:52;20.73;;;12.00;;
23872;SDS011;42884;50.718;4.630;2023-04-24T06:05:19;19.63;;;13.13;;
23872;SDS011;42884;50.718;4.630;2023-04-24T06:07:44;18.33;;;12.98;;
23872;SDS011;42884;50.718;4.630;2023-04-24T06:10:12;18.35;;;12.48;;
23872;SDS011;42884;50.718;4.630;2023-04-24T06:12:37;18.10;;;13.35;;
23872;SDS011;42884;50.718;4.630;2023-04-24T06:15:03;20.20;;;12.50;;
23872;SDS011;42884;50.718;4.630;2023-04-24T06:17:30;19.65;;;13.55;;
23872;SDS011;42884;50.718;4.630;2023-04-24T06:19:57;21.15;;;13.32;;
23872;SDS011;42884;50.718;4.630;2023-04-24T06:22:23;21.48;;;13.15;;
23872;SDS011;42884;50.718;4.630;2023-04-24T06:24:48;22.08;;;13.02;;
23872;SDS011;42884;50.718;4.630;2023-04-24T06:27:14;23.52;;;13.75;;
23872;SDS011;42884;50.718;4.630;2023-04-24T06:29:40;24.25;;;13.57;;
23872;SDS011;42884;50.718;4.630;2023-04-24T06:32:05;21.70;;;13.52;;
23872;SDS011;42884;50.718;4.630;2023-04-24T06:34:31;20.75;;;12.90;;
23872;SDS011;42884;50.718;4.630;2023-04-24T06:36:59;21.92;;;13.77;;
23872;SDS011;42884;50.718;4.630;2023-04-24T06:39:25;26.80;;;13.80;;
23872;SDS011;42884;50.718;4.630;2023-04-24T06:41:50;25.67;;;13.27;;
23872;SDS011;42884;50.718;4.630;2023-04-24T06:44:16;24.02;;;13.50;;
23872;SDS011;42884;50.718;4.630;2023-04-24T06:46:42;23.60;;;14.05;;
23872;SDS011;42884;50.718;4.630;2023-04-24T06:49:08;20.10;;;13.70;;
23872;SDS011;42884;50.718;4.630;2023-04-24T06:51:33;22.23;;;13.32;;
23872;SDS011;42884;50.718;4.630;2023-04-24T06:53:59;19.17;;;13.05;;
23872;SDS011;42884;50.718;4.630;2023-04-24T06:56:25;21.33;;;15.30;;
23872;SDS011;42884;50.718;4.630;2023-04-24T06:58:51;22.08;;;14.95;;
23872;SDS011;42884;50.718;4.630;2023-04-24T07:01:18;25.38;;;16.98;;
23872;SDS011;42884;50.718;4.630;2023-04-24T07:03:44;31.30;;;17.05;;
23872;SDS011;42884;50.718;4.630;2023-04-24T07:06:13;30.90;;;17.42;;
23872;SDS011;42884;50.718;4.630;2023-04-24T07:08:39;34.60;;;18.77;;
23872;SDS011;42884;50.718;4.630;2023-04-24T07:11:06;34.35;;;19.38;;
23872;SDS011;42884;50.718;4.630;2023-04-24T07:13:32;28.52;;;18.70;;
23872;SDS011;42884;50.718;4.630;2023-04-24T07:16:00;30.00;;;18.77;;
23872;SDS011;42884;50.718;4.630;2023-04-24T07:18:26;34.05;;;19.20;;
23872;SDS011;42884;50.718;4.630;2023-04-24T07:20:51;31.05;;;18.17;;
23872;SDS011;42884;50.718;4.630;2023-04-24T07:23:17;37.45;;;19.50;;
23872;SDS011;42884;50.718;4.630;2023-04-24T07:28:09;31.05;;;19.95;;
23872;SDS011;42884;50.718;4.630;2023-04-24T07:30:35;31.23;;;20.20;;
23872;SDS011;42884;50.718;4.630;2023-04-24T07:33:00;27.63;;;18.63;;
23872;SDS011;42884;50.718;4.630;2023-04-24T07:35:26;31.63;;;16.83;;
23872;SDS011;42884;50.718;4.630;2023-04-24T07:37:55;28.70;;;15.32;;
23872;SDS011;42884;50.718;4.630;2023-04-24T07:40:21;29.17;;;17.45;;
23872;SDS011;42884;50.718;4.630;2023-04-24T07:42:47;29.95;;;17.35;;
23872;SDS011;42884;50.718;4.630;2023-04-24T07:45:13;29.40;;;18.83;;
23872;SDS011;42884;50.718;4.630;2023-04-24T07:50:08;27.85;;;16.15;;
23872;SDS011;42884;50.718;4.630;2023-04-24T07:52:35;26.88;;;16.73;;
23872;SDS011;42884;50.718;4.630;2023-04-24T07:55:01;26.48;;;16.65;;
23872;SDS011;42884;50.718;4.630;2023-04-24T07:59:53;24.27;;;15.20;;
23872;SDS011;42884;50.718;4.630;2023-04-24T08:02:20;24.55;;;15.75;;
23872;SDS011;42884;50.718;4.630;2023-04-24T08:04:51;25.95;;;15.55;;
23872;SDS011;42884;50.718;4.630;2023-04-24T08:07:20;28.20;;;16.65;;
23872;SDS011;42884;50.718;4.630;2023-04-24T08:09:45;25.63;;;16.55;;
23872;SDS011;42884;50.718;4.630;2023-04-24T08:12:11;28.23;;;17.10;;
23872;SDS011;42884;50.718;4.630;2023-04-24T08:14:37;32.85;;;16.15;;
23872;SDS011;42884;50.718;4.630;2023-04-24T08:17:03;25.50;;;15.40;;
23872;SDS011;42884;50.718;4.630;2023-04-24T08:19:29;24.55;;;16.33;;
23872;SDS011;42884;50.718;4.630;2023-04-24T08:21:54;24.63;;;16.10;;
23872;SDS011;42884;50.718;4.630;2023-04-24T08:24:20;27.52;;;15.73;;
23872;SDS011;42884;50.718;4.630;2023-04-24T08:26:47;24.02;;;15.48;;
23872;SDS011;42884;50.718;4.630;2023-04-24T08:29:15;24.35;;;15.05;;
23872;SDS011;42884;50.718;4.630;2023-04-24T08:31:41;24.70;;;15.73;;
23872;SDS011;42884;50.718;4.630;2023-04-24T08:34:07;33.20;;;16.25;;
23872;SDS011;42884;50.718;4.630;2023-04-24T08:36:32;32.22;;;17.45;;
23872;SDS011;42884;50.718;4.630;2023-04-24T08:38:58;20.30;;;14.45;;
23872;SDS011;42884;50.718;4.630;2023-04-24T08:41:24;25.30;;;14.85;;
23872;SDS011;42884;50.718;4.630;2023-04-24T08:43:51;21.23;;;14.50;;
23872;SDS011;42884;50.718;4.630;2023-04-24T08:46:18;25.95;;;13.57;;
23872;SDS011;42884;50.718;4.630;2023-04-24T08:48:45;21.92;;;13.45;;
23872;SDS011;42884;50.718;4.630;2023-04-24T08:51:11;20.35;;;12.95;;
23872;SDS011;42884;50.718;4.630;2023-04-24T08:53:36;19.00;;;11.93;;
23872;SDS011;42884;50.718;4.630;2023-04-24T08:56:03;17.80;;;11.00;;
23872;SDS011;42884;50.718;4.630;2023-04-24T08:58:29;18.85;;;10.43;;
23872;SDS011;42884;50.718;4.630;2023-04-24T09:00:56;17.02;;;10.32;;
23872;SDS011;42884;50.718;4.630;2023-04-24T09:03:23;19.33;;;10.27;;
23872;SDS011;42884;50.718;4.630;2023-04-24T09:05:49;18.75;;;11.77;;
23872;SDS011;42884;50.718;4.630;2023-04-24T09:08:18;19.08;;;9.95;;
23872;SDS011;42884;50.718;4.630;2023-04-24T09:10:44;15.50;;;9.73;;
23872;SDS011;42884;50.718;4.630;2023-04-24T09:13:10;13.88;;;8.57;;
23872;SDS011;42884;50.718;4.630;2023-04-24T09:15:39;15.85;;;7.95;;
23872;SDS011;42884;50.718;4.630;2023-04-24T09:18:06;17.83;;;8.57;;
23872;SDS011;42884;50.718;4.630;2023-04-24T09:20:32;13.93;;;7.68;;
23872;SDS011;42884;50.718;4.630;2023-04-24T09:22:58;14.20;;;7.97;;
23872;SDS011;42884;50.718;4.630;2023-04-24T09:25:31;15.85;;;7.65;;
23872;SDS011;42884;50.718;4.630;2023-04-24T09:28:00;12.35;;;6.88;;
23872;SDS011;42884;50.718;4.630;2023-04-24T09:30:29;10.00;;;6.65;;
23872;SDS011;42884;50.718;4.630;2023-04-24T09:35:40;11.00;;;6.32;;
23872;SDS011;42884;50.718;4.630;2023-04-24T09:38:07;11.27;;;5.65;;
23872;SDS011;42884;50.718;4.630;2023-04-24T09:40:34;8.88;;;4.35;;
23872;SDS011;42884;50.718;4.630;2023-04-24T09:43:00;10.25;;;4.80;;
23872;SDS011;42884;50.718;4.630;2023-04-24T09:45:37;16.67;;;5.78;;
23872;SDS011;42884;50.718;4.630;2023-04-24T09:48:04;10.77;;;5.85;;
23872;SDS011;42884;50.718;4.630;2023-04-24T09:50:31;13.35;;;6.18;;
23872;SDS011;42884;50.718;4.630;2023-04-24T09:55:27;12.93;;;6.55;;
23872;SDS011;42884;50.718;4.630;2023-04-24T09:57:56;10.65;;;6.22;;
23872;SDS011;42884;50.718;4.630;2023-04-24T10:00:30;9.30;;;5.80;;
23872;SDS011;42884;50.718;4.630;2023-04-24T10:03:00;13.18;;;6.43;;
23872;SDS011;42884;50.718;4.630;2023-04-24T10:05:28;8.00;;;6.05;;
23872;SDS011;42884;50.718;4.630;2023-04-24T10:08:01;12.05;;;5.25;;
23872;SDS011;42884;50.718;4.630;2023-04-24T10:10:31;9.75;;;5.15;;
23872;SDS011;42884;50.718;4.630;2023-04-24T10:12:59;9.85;;;5.32;;
23872;SDS011;42884;50.718;4.630;2023-04-24T10:15:26;7.20;;;4.70;;
23872;SDS011;42884;50.718;4.630;2023-04-24T10:17:52;7.60;;;4.55;;
23872;SDS011;42884;50.718;4.630;2023-04-24T10:20:21;11.00;;;4.55;;
23872;SDS011;42884;50.718;4.630;2023-04-24T10:22:49;9.52;;;4.72;;
23872;SDS011;42884;50.718;4.630;2023-04-24T10:25:20;9.32;;;4.47;;
23872;SDS011;42884;50.718;4.630;2023-04-24T10:27:48;11.00;;;4.72;;
23872;SDS011;42884;50.718;4.630;2023-04-24T10:30:15;12.32;;;4.72;;
23872;SDS011;42884;50.718;4.630;2023-04-24T10:32:42;10.40;;;4.53;;
23872;SDS011;42884;50.718;4.630;2023-04-24T10:35:08;8.35;;;4.15;;
23872;SDS011;42884;50.718;4.630;2023-04-24T10:37:36;8.55;;;4.32;;
23872;SDS011;42884;50.718;4.630;2023-04-24T10:40:06;8.35;;;4.38;;
23872;SDS011;42884;50.718;4.630;2023-04-24T10:42:33;9.95;;;4.55;;
23872;SDS011;42884;50.718;4.630;2023-04-24T10:47:29;6.72;;;4.45;;
23872;SDS011;42884;50.718;4.630;2023-04-24T10:50:07;9.85;;;4.80;;
23872;SDS011;42884;50.718;4.630;2023-04-24T10:52:45;10.55;;;4.80;;
23872;SDS011;42884;50.718;4.630;2023-04-24T10:55:13;8.93;;;5.03;;
23872;SDS011;42884;50.718;4.630;2023-04-24T10:57:40;12.40;;;5.90;;
23872;SDS011;42884;50.718;4.630;2023-04-24T11:00:27;9.65;;;4.63;;
23872;SDS011;42884;50.718;4.630;2023-04-24T11:02:53;10.18;;;4.65;;
23872;SDS011;42884;50.718;4.630;2023-04-24T11:05:20;6.32;;;4.82;;
23872;SDS011;42884;50.718;4.630;2023-04-24T11:10:43;7.80;;;4.28;;
23872;SDS011;42884;50.718;4.630;2023-04-24T11:13:09;8.60;;;4.60;;
23872;SDS011;42884;50.718;4.630;2023-04-24T11:15:35;9.30;;;5.32;;
23872;SDS011;42884;50.718;4.630;2023-04-24T11:18:01;8.95;;;5.20;;
23872;SDS011;42884;50.718;4.630;2023-04-24T11:20:27;9.95;;;6.32;;
23872;SDS011;42884;50.718;4.630;2023-04-24T11:22:53;11.05;;;6.35;;
23872;SDS011;42884;50.718;4.630;2023-04-24T11:25:20;7.55;;;5.45;;
23872;SDS011;42884;50.718;4.630;2023-04-24T11:27:50;10.32;;;6.32;;
23872;SDS011;42884;50.718;4.630;2023-04-24T11:30:28;9.57;;;6.32;;
23872;SDS011;42884;50.718;4.630;2023-04-24T11:32:55;12.60;;;6.47;;
23872;SDS011;42884;50.718;4.630;2023-04-24T11:35:28;13.57;;;6.80;;
23872;SDS011;42884;50.718;4.630;2023-04-24T11:37:55;10.73;;;6.32;;
23872;SDS011;42884;50.718;4.630;2023-04-24T11:40:22;11.45;;;6.15;;
23872;SDS011;42884;50.718;4.630;2023-04-24T11:42:48;12.00;;;6.55;;
23872;SDS011;42884;50.718;4.630;2023-04-24T11:45:23;10.27;;;7.55;;
23872;SDS011;42884;50.718;4.630;2023-04-24T11:47:51;12.95;;;7.57;;
23872;SDS011;42884;50.718;4.630;2023-04-24T11:50:17;14.15;;;8.93;;
23872;SDS011;42884;50.718;4.630;2023-04-24T11:52:45;10.85;;;7.68;;
23872;SDS011;42884;50.718;4.630;2023-04-24T11:57:44;10.15;;;8.23;;
23872;SDS011;42884;50.718;4.630;2023-04-24T12:00:15;9.93;;;7.50;;
23872;SDS011;42884;50.718;4.630;2023-04-24T12:02:42;12.35;;;7.60;;
23872;SDS011;42884;50.718;4.630;2023-04-24T12:05:08;9.48;;;7.93;;
23872;SDS011;42884;50.718;4.630;2023-04-24T12:07:40;12.27;;;8.27;;
23872;SDS011;42884;50.718;4.630;2023-04-24T12:10:08;13.18;;;7.78;;
23872;SDS011;42884;50.718;4.630;2023-04-24T12:12:34;13.40;;;8.45;;
23872;SDS011;42884;50.718;4.630;2023-04-24T12:15:00;13.80;;;8.75;;
23872;SDS011;42884;50.718;4.630;2023-04-24T12:19:59;10.63;;;7.80;;
23872;SDS011;42884;50.718;4.630;2023-04-24T12:22:26;11.88;;;7.50;;
23872;SDS011;42884;50.718;4.630;2023-04-24T12:24:55;9.85;;;8.70;;
23872;SDS011;42884;50.718;4.630;2023-04-24T12:27:22;9.95;;;7.15;;
23872;SDS011;42884;50.718;4.630;2023-04-24T12:29:52;9.85;;;6.82;;
23872;SDS011;42884;50.718;4.630;2023-04-24T12:32:19;9.57;;;6.72;;
23872;SDS011;42884;50.718;4.630;2023-04-24T12:34:44;11.73;;;6.63;;
23872;SDS011;42884;50.718;4.630;2023-04-24T12:37:11;8.60;;;6.55;;
23872;SDS011;42884;50.718;4.630;2023-04-24T12:39:37;8.73;;;6.93;;
23872;SDS011;42884;50.718;4.630;2023-04-24T12:42:02;8.52;;;6.60;;
23872;SDS011;42884;50.718;4.630;2023-04-24T12:44:32;9.10;;;6.88;;
23872;SDS011;42884;50.718;4.630;2023-04-24T12:46:59;8.15;;;6.70;;
23872;SDS011;42884;50.718;4.630;2023-04-24T12:49:26;10.85;;;6.72;;
23872;SDS011;42884;50.718;4.630;2023-04-24T12:51:53;10.13;;;6.53;;
23872;SDS011;42884;50.718;4.630;2023-04-24T12:54:19;8.00;;;5.85;;
23872;SDS011;42884;50.718;4.630;2023-04-24T12:56:44;8.63;;;6.00;;
23872;SDS011;42884;50.718;4.630;2023-04-24T12:59:10;8.50;;;6.15;;
23872;SDS011;42884;50.718;4.630;2023-04-24T13:01:36;11.48;;;6.30;;
23872;SDS011;42884;50.718;4.630;2023-04-24T13:04:01;9.40;;;6.20;;
23872;SDS011;42884;50.718;4.630;2023-04-24T13:06:27;8.52;;;6.72;;
23872;SDS011;42884;50.718;4.630;2023-04-24T13:08:53;10.57;;;6.72;;
23872;SDS011;42884;50.718;4.630;2023-04-24T13:11:20;7.72;;;6.15;;
23872;SDS011;42884;50.718;4.630;2023-04-24T13:13:47;8.20;;;6.18;;
23872;SDS011;42884;50.718;4.630;2023-04-24T13:16:12;7.30;;;6.05;;
23872;SDS011;42884;50.718;4.630;2023-04-24T13:18:38;7.60;;;6.00;;
23872;SDS011;42884;50.718;4.630;2023-04-24T13:21:04;10.65;;;6.10;;
23872;SDS011;42884;50.718;4.630;2023-04-24T13:23:30;7.35;;;6.28;;
23872;SDS011;42884;50.718;4.630;2023-04-24T13:25:55;7.32;;;6.07;;
23872;SDS011;42884;50.718;4.630;2023-04-24T13:28:26;7.53;;;5.85;;
23872;SDS011;42884;50.718;4.630;2023-04-24T13:30:52;8.18;;;6.57;;
23872;SDS011;42884;50.718;4.630;2023-04-24T13:33:18;9.32;;;6.60;;
23872;SDS011;42884;50.718;4.630;2023-04-24T13:35:44;9.00;;;6.90;;
23872;SDS011;42884;50.718;4.630;2023-04-24T13:38:10;12.50;;;6.55;;
23872;SDS011;42884;50.718;4.630;2023-04-24T13:40:35;11.30;;;7.05;;
23872;SDS011;42884;50.718;4.630;2023-04-24T13:43:01;10.93;;;7.28;;
23872;SDS011;42884;50.718;4.630;2023-04-24T13:47:53;10.93;;;7.13;;
23872;SDS011;42884;50.718;4.630;2023-04-24T13:50:19;12.63;;;7.47;;
23872;SDS011;42884;50.718;4.630;2023-04-24T13:52:45;11.23;;;7.20;;
23872;SDS011;42884;50.718;4.630;2023-04-24T13:55:11;9.57;;;7.03;;
23872;SDS011;42884;50.718;4.630;2023-04-24T13:57:37;9.32;;;7.20;;
23872;SDS011;42884;50.718;4.630;2023-04-24T14:00:03;7.75;;;6.18;;
23872;SDS011;42884;50.718;4.630;2023-04-24T14:02:30;8.85;;;7.35;;
23872;SDS011;42884;50.718;4.630;2023-04-24T14:04:56;10.77;;;7.50;;
23872;SDS011;42884;50.718;4.630;2023-04-24T14:07:22;9.45;;;7.53;;
23872;SDS011;42884;50.718;4.630;2023-04-24T14:09:47;9.68;;;6.90;;
23872;SDS011;42884;50.718;4.630;2023-04-24T14:12:13;9.77;;;7.20;;
23872;SDS011;42884;50.718;4.630;2023-04-24T14:14:41;10.23;;;6.90;;
23872;SDS011;42884;50.718;4.630;2023-04-24T14:17:07;8.52;;;6.97;;
23872;SDS011;42884;50.718;4.630;2023-04-24T14:19:32;11.52;;;7.95;;
23872;SDS011;42884;50.718;4.630;2023-04-24T14:21:59;11.15;;;6.88;;
23872;SDS011;42884;50.718;4.630;2023-04-24T14:24:25;11.52;;;7.82;;
23872;SDS011;42884;50.718;4.630;2023-04-24T14:26:51;11.48;;;7.72;;
23872;SDS011;42884;50.718;4.630;2023-04-24T14:29:17;10.57;;;8.38;;
23872;SDS011;42884;50.718;4.630;2023-04-24T14:31:43;11.43;;;8.10;;
23872;SDS011;42884;50.718;4.630;2023-04-24T14:34:09;10.80;;;9.10;;
23872;SDS011;42884;50.718;4.630;2023-04-24T14:36:35;12.50;;;8.80;;
23872;SDS011;42884;50.718;4.630;2023-04-24T14:39:00;10.65;;;7.68;;
23872;SDS011;42884;50.718;4.630;2023-04-24T14:41:31;13.88;;;8.85;;
23872;SDS011;42884;50.718;4.630;2023-04-24T14:43:57;14.68;;;9.88;;
23872;SDS011;42884;50.718;4.630;2023-04-24T14:46:23;14.25;;;9.50;;
23872;SDS011;42884;50.718;4.630;2023-04-24T14:48:49;13.65;;;10.65;;
23872;SDS011;42884;50.718;4.630;2023-04-24T14:51:14;15.85;;;10.00;;
23872;SDS011;42884;50.718;4.630;2023-04-24T14:53:40;13.38;;;10.65;;
23872;SDS011;42884;50.718;4.630;2023-04-24T14:56:06;16.45;;;12.55;;
23872;SDS011;42884;50.718;4.630;2023-04-24T14:58:32;18.67;;;12.27;;
23872;SDS011;42884;50.718;4.630;2023-04-24T15:00:58;14.20;;;11.95;;
23872;SDS011;42884;50.718;4.630;2023-04-24T15:03:23;18.05;;;13.23;;
23872;SDS011;42884;50.718;4.630;2023-04-24T15:05:51;19.02;;;13.85;;
23872;SDS011;42884;50.718;4.630;2023-04-24T15:08:17;17.20;;;11.98;;
23872;SDS011;42884;50.718;4.630;2023-04-24T15:10:43;7.35;;;3.88;;
23872;SDS011;42884;50.718;4.630;2023-04-24T15:13:09;5.43;;;3.63;;